createdAt,value
2019-02-28T00:01:27.803Z,13.07
2019-02-28T00:03:57.940Z,12.67
2019-02-28T00:06:24.818Z,12.63
2019-02-28T00:08:53.651Z,11.93
2019-02-28T00:11:21.683Z,13.63
2019-02-28T00:13:49.241Z,13.57
2019-02-28T00:16:16.833Z,12.40
2019-02-28T00:18:49.504Z,13.30
2019-02-28T00:21:14.223Z,14.53
2019-02-28T00:23:41.755Z,15.00
2019-02-28T00:26:11.654Z,14.30
2019-02-28T00:28:38.555Z,14.73
2019-02-28T00:31:06.103Z,13.97
2019-02-28T00:33:33.601Z,14.40
2019-02-28T00:36:01.091Z,14.77
2019-02-28T00:38:29.662Z,13.77
2019-02-28T00:40:57.846Z,13.27
2019-02-28T00:43:25.809Z,14.77
2019-02-28T00:45:53.402Z,15.33
2019-02-28T00:48:22.381Z,13.93
2019-02-28T00:50:49.884Z,15.97
2019-02-28T00:53:17.331Z,15.90
2019-02-28T00:55:45.949Z,16.73
2019-02-28T00:58:14.222Z,15.03
2019-02-28T01:00:41.784Z,14.50
2019-02-28T01:03:09.252Z,14.50
2019-02-28T01:05:37.273Z,12.60
2019-02-28T01:08:04.828Z,12.77
2019-02-28T01:10:32.275Z,12.73
2019-02-28T01:12:59.811Z,12.63
2019-02-28T01:15:27.296Z,15.07
2019-02-28T01:17:57.224Z,13.90
2019-02-28T01:20:24.099Z,14.63
2019-02-28T01:22:51.594Z,13.77
2019-02-28T01:25:19.159Z,14.03
2019-02-28T01:27:46.685Z,13.97
2019-02-28T01:30:14.272Z,16.13
2019-02-28T01:32:41.773Z,14.20
2019-02-28T01:35:09.600Z,14.77
2019-02-28T01:37:37.118Z,14.97
2019-02-28T01:40:05.280Z,15.63
2019-02-28T01:42:32.879Z,13.93
2019-02-28T01:45:00.414Z,16.00
2019-02-28T01:47:27.900Z,15.90
2019-02-28T01:49:57.776Z,15.77
2019-02-28T01:52:24.703Z,15.80
2019-02-28T01:54:52.216Z,13.90
2019-02-28T01:57:19.718Z,13.80
2019-02-28T01:59:47.265Z,13.17
2019-02-28T02:02:14.753Z,12.73
2019-02-28T02:04:43.174Z,14.30
2019-02-28T02:07:11.752Z,13.63
2019-02-28T02:09:39.241Z,13.97
2019-02-28T02:12:06.696Z,13.20
2019-02-28T02:14:34.216Z,13.13
2019-02-28T02:17:01.962Z,13.47
2019-02-28T02:19:29.539Z,13.53
2019-02-28T02:21:57.035Z,13.87
2019-02-28T02:24:27.885Z,12.20
2019-02-28T02:26:53.881Z,13.00
2019-02-28T02:29:21.386Z,12.07
2019-02-28T02:31:48.949Z,13.87
2019-02-28T02:34:16.486Z,13.33
2019-02-28T02:36:43.945Z,13.63
2019-02-28T02:39:16.390Z,13.53
2019-02-28T02:41:40.751Z,14.77
2019-02-28T02:44:08.873Z,14.60
2019-02-28T02:46:36.368Z,13.77
2019-02-28T02:49:03.896Z,14.10
2019-02-28T02:51:31.611Z,14.27
2019-02-28T02:53:59.087Z,15.03
2019-02-28T02:56:26.562Z,14.67
2019-02-28T02:58:54.066Z,13.70
2019-02-28T03:01:23.103Z,13.87
2019-02-28T03:03:50.846Z,13.23
2019-02-28T03:06:18.370Z,13.13
2019-02-28T03:08:45.873Z,13.73
2019-02-28T03:11:13.389Z,13.70
2019-02-28T03:13:43.565Z,13.83
2019-02-28T03:16:10.137Z,14.27
2019-02-28T03:18:37.609Z,15.33
2019-02-28T03:21:05.074Z,15.17
2019-02-28T03:23:38.193Z,14.83
2019-02-28T03:26:05.562Z,14.23
2019-02-28T03:28:32.038Z,13.07
2019-02-28T03:31:11.790Z,14.03
2019-02-28T03:33:29.773Z,12.87
2019-02-28T03:35:57.289Z,13.77
2019-02-28T03:38:24.744Z,13.50
2019-02-28T03:40:52.215Z,13.37
2019-02-28T03:43:19.684Z,14.00
2019-02-28T03:45:47.162Z,15.23
2019-02-28T03:48:14.614Z,14.80
2019-02-28T03:50:42.087Z,14.63
2019-02-28T03:53:09.571Z,14.70
2019-02-28T03:55:40.868Z,13.73
2019-02-28T03:58:06.334Z,13.90
2019-02-28T04:00:34.203Z,13.80
2019-02-28T04:03:01.993Z,13.23
2019-02-28T04:05:29.541Z,13.70
2019-02-28T04:07:56.994Z,13.37
2019-02-28T04:10:24.511Z,12.13
2019-02-28T04:12:51.959Z,13.57
2019-02-28T04:15:20.717Z,12.17
2019-02-28T04:17:48.202Z,11.03
2019-02-28T04:20:15.702Z,11.20
2019-02-28T04:22:43.152Z,12.30
2019-02-28T04:25:10.819Z,10.60
2019-02-28T04:27:40.217Z,10.70
2019-02-28T04:30:08.435Z,11.27
2019-02-28T04:32:36.201Z,11.60
2019-02-28T04:35:03.762Z,12.63
2019-02-28T04:37:31.208Z,12.97
2019-02-28T04:39:58.708Z,11.90
2019-02-28T04:42:26.164Z,12.43
2019-02-28T04:44:53.854Z,12.80
2019-02-28T04:47:21.323Z,13.70
2019-02-28T04:49:48.773Z,13.90
2019-02-28T04:52:16.293Z,13.33
2019-02-28T04:54:43.742Z,13.40
2019-02-28T04:57:11.197Z,13.50
2019-02-28T04:59:38.715Z,12.70
2019-02-28T05:02:06.177Z,11.70
2019-02-28T05:04:36.151Z,12.40
2019-02-28T05:07:02.903Z,11.87
2019-02-28T05:09:30.422Z,10.13
2019-02-28T05:11:57.899Z,11.80
2019-02-28T05:14:25.370Z,11.57
2019-02-28T05:16:52.914Z,12.73
2019-02-28T05:19:20.396Z,11.97
2019-02-28T05:21:50.607Z,12.33
2019-02-28T05:24:17.171Z,10.93
2019-02-28T05:26:44.656Z,11.57
2019-02-28T05:29:13.049Z,12.70
2019-02-28T05:31:40.755Z,12.93
2019-02-28T05:34:08.263Z,12.07
2019-02-28T05:36:37.929Z,11.40
2019-02-28T05:39:05.584Z,11.43
2019-02-28T05:41:36.230Z,11.27
2019-02-28T05:44:06.231Z,11.07
2019-02-28T05:46:33.060Z,10.77
2019-02-28T05:49:00.584Z,12.20
2019-02-28T05:51:28.047Z,13.00
2019-02-28T05:53:55.536Z,13.07
2019-02-28T05:56:23.010Z,13.30
2019-02-28T05:58:52.518Z,13.50
2019-02-28T06:01:19.823Z,13.20
2019-02-28T06:03:47.332Z,14.80
2019-02-28T06:06:17.210Z,14.17
2019-02-28T06:08:44.100Z,15.57
2019-02-28T06:11:11.602Z,14.13
2019-02-28T06:13:39.138Z,13.53
2019-02-28T06:16:11.294Z,20.60
2019-02-28T06:18:35.917Z,16.53
2019-02-28T06:21:03.453Z,13.47
2019-02-28T06:23:30.937Z,11.70
2019-02-28T06:25:59.342Z,11.43
2019-02-28T06:28:31.031Z,11.97
2019-02-28T06:30:57.141Z,11.97
2019-02-28T06:33:24.616Z,11.23
2019-02-28T06:35:53.703Z,11.53
2019-02-28T06:38:21.393Z,13.43
2019-02-28T06:40:48.902Z,14.20
2019-02-28T06:43:18.717Z,15.13
2019-02-28T06:45:45.652Z,16.03
2019-02-28T06:48:13.175Z,16.20
2019-02-28T06:50:40.647Z,16.07
2019-02-28T06:53:08.119Z,15.57
2019-02-28T06:55:50.714Z,15.97
2019-02-28T06:58:18.234Z,16.47
2019-02-28T07:00:47.341Z,14.77
2019-02-28T07:03:14.978Z,13.93
2019-02-28T07:05:42.458Z,13.40
2019-02-28T07:08:09.931Z,13.67
2019-02-28T07:10:37.451Z,14.43
2019-02-28T07:13:05.630Z,13.77
2019-02-28T07:15:33.173Z,13.20
2019-02-28T07:18:00.792Z,12.13
2019-02-28T07:20:28.278Z,11.77
2019-02-28T07:22:58.175Z,10.80
2019-02-28T07:25:25.649Z,11.40
2019-02-28T07:27:53.158Z,11.80
2019-02-28T07:30:20.640Z,10.67
2019-02-28T07:32:48.218Z,10.30
2019-02-28T07:35:15.672Z,11.50
2019-02-28T07:37:43.119Z,11.80
2019-02-28T07:40:15.530Z,11.00
2019-02-28T07:42:40.453Z,11.13
2019-02-28T07:45:08.823Z,11.57
2019-02-28T07:47:36.306Z,10.97
2019-02-28T07:50:07.570Z,11.03
2019-02-28T07:52:33.917Z,11.30
2019-02-28T07:55:01.381Z,12.90
2019-02-28T07:57:28.870Z,11.67
2019-02-28T07:59:56.370Z,12.63
2019-02-28T08:02:23.845Z,10.80
2019-02-28T08:04:54.496Z,12.00
2019-02-28T08:07:20.633Z,12.37
2019-02-28T08:09:48.127Z,12.03
2019-02-28T08:12:15.603Z,11.50
2019-02-28T08:14:43.608Z,14.30
2019-02-28T08:17:12.383Z,12.10
2019-02-28T08:19:39.923Z,13.10
2019-02-28T08:22:07.398Z,12.23
2019-02-28T08:24:35.900Z,12.17
2019-02-28T08:27:04.120Z,11.50
2019-02-28T08:29:31.591Z,12.50
2019-02-28T08:31:59.536Z,13.20
2019-02-28T08:34:26.989Z,11.87
2019-02-28T08:36:54.454Z,13.23
2019-02-28T08:39:21.945Z,12.27
2019-02-28T08:41:49.677Z,12.57
2019-02-28T08:44:22.804Z,12.70
2019-02-28T08:46:47.331Z,12.73
2019-02-28T08:49:14.856Z,12.93
2019-02-28T08:51:43.260Z,13.40
2019-02-28T08:54:10.736Z,12.70
2019-02-28T08:56:38.200Z,12.43
2019-02-28T08:59:11.735Z,13.27
2019-02-28T09:01:40.130Z,22.33
2019-02-28T09:04:05.689Z,13.73
2019-02-28T09:06:33.348Z,13.73
2019-02-28T09:09:00.866Z,13.83
2019-02-28T09:11:28.328Z,14.47
2019-02-28T09:13:55.852Z,14.40
2019-02-28T09:16:23.669Z,13.30
2019-02-28T09:18:51.200Z,13.10
2019-02-28T09:21:19.113Z,12.50
2019-02-28T09:23:46.690Z,14.40
2019-02-28T09:26:14.179Z,13.80
2019-02-28T09:28:44.367Z,12.23
2019-02-28T09:31:11.039Z,14.57
2019-02-28T09:33:38.628Z,13.90
2019-02-28T09:36:06.129Z,14.60
2019-02-28T09:38:33.621Z,13.90
2019-02-28T09:41:01.399Z,14.03
2019-02-28T09:43:30.607Z,14.43
2019-02-28T09:45:58.089Z,15.17
2019-02-28T09:48:25.696Z,15.13
2019-02-28T09:50:57.751Z,14.73
2019-02-28T09:53:22.646Z,14.30
2019-02-28T09:55:51.241Z,15.03
2019-02-28T09:58:18.741Z,15.27
2019-02-28T10:00:49.293Z,13.70
2019-02-28T10:03:18.555Z,14.20
2019-02-28T10:05:45.732Z,14.67
2019-02-28T10:08:13.276Z,13.37
2019-02-28T10:10:40.848Z,12.73
2019-02-28T10:13:08.389Z,13.33
2019-02-28T10:15:38.748Z,13.40
2019-02-28T10:18:05.334Z,12.83
2019-02-28T10:20:33.272Z,13.70
2019-02-28T10:23:00.867Z,13.43
2019-02-28T10:25:28.385Z,14.93
2019-02-28T10:28:01.155Z,13.83
2019-02-28T10:30:31.619Z,14.93
2019-02-28T10:32:54.842Z,14.67
2019-02-28T10:35:22.674Z,12.47
2019-02-28T10:37:50.241Z,12.07
2019-02-28T10:40:19.738Z,15.13
2019-02-28T10:42:47.304Z,12.57
2019-02-28T10:45:15.073Z,14.40
2019-02-28T10:47:42.694Z,11.90
2019-02-28T10:50:13.065Z,15.10
2019-02-28T10:52:40.559Z,15.53
2019-02-28T10:55:09.278Z,12.33
2019-02-28T10:57:37.280Z,14.57
2019-02-28T11:00:10.274Z,14.10
2019-02-28T11:02:38.081Z,13.37
2019-02-28T11:05:05.715Z,13.33
2019-02-28T11:07:34.239Z,16.83
2019-02-28T11:10:03.247Z,14.00
2019-02-28T11:12:30.703Z,14.83
2019-02-28T11:14:58.242Z,17.53
2019-02-28T11:17:25.890Z,16.57
2019-02-28T11:19:53.377Z,15.13
2019-02-28T11:22:20.872Z,17.37
2019-02-28T11:24:48.845Z,15.90
2019-02-28T11:27:19.711Z,16.03
2019-02-28T11:29:45.630Z,13.33
2019-02-28T11:32:16.217Z,16.87
2019-02-28T11:34:45.826Z,17.70
2019-02-28T11:37:13.150Z,17.47
2019-02-28T11:39:40.715Z,17.23
2019-02-28T11:42:08.179Z,17.37
2019-02-28T11:44:35.771Z,15.43
2019-02-28T11:47:03.391Z,17.00
2019-02-28T11:49:30.913Z,16.07
2019-02-28T11:51:58.447Z,14.10
2019-02-28T11:54:26.061Z,17.10
2019-02-28T11:56:53.585Z,17.17
2019-02-28T11:59:24.092Z,14.53
2019-02-28T12:01:50.423Z,16.33
2019-02-28T12:04:17.917Z,15.80
2019-02-28T12:06:45.725Z,16.97
2019-02-28T12:09:16.121Z,15.87
2019-02-28T12:11:42.640Z,15.07
2019-02-28T12:14:10.377Z,14.63
2019-02-28T12:16:37.927Z,17.83
2019-02-28T12:19:05.478Z,14.20
2019-02-28T12:21:37.627Z,16.40
2019-02-28T12:24:02.327Z,13.27
2019-02-28T12:26:30.059Z,14.23
2019-02-28T12:28:57.627Z,12.70
2019-02-28T12:31:25.098Z,13.77
2019-02-28T12:33:53.373Z,11.47
2019-02-28T12:36:21.962Z,11.90
2019-02-28T12:38:49.505Z,10.47
2019-02-28T12:41:17.041Z,8.43
2019-02-28T12:43:44.518Z,10.10
2019-02-28T12:46:12.003Z,8.10
2019-02-28T12:48:39.598Z,7.47
2019-02-28T12:51:07.062Z,8.00
2019-02-28T12:53:34.618Z,8.23
2019-02-28T12:56:02.113Z,9.23
2019-02-28T12:58:37.195Z,8.87
2019-02-28T13:01:00.008Z,7.13
2019-02-28T13:03:28.290Z,7.03
2019-02-28T13:05:55.801Z,7.17
2019-02-28T13:08:23.284Z,6.43
2019-02-28T13:10:50.764Z,7.40
2019-02-28T13:13:21.757Z,7.43
2019-02-28T13:15:49.246Z,8.10
2019-02-28T13:18:16.867Z,8.40
2019-02-28T13:20:44.850Z,6.20
2019-02-28T13:23:12.328Z,7.43
2019-02-28T13:25:39.862Z,8.30
2019-02-28T13:28:07.488Z,7.77
2019-02-28T13:30:35.084Z,7.80
2019-02-28T13:33:02.629Z,7.37
2019-02-28T13:35:30.107Z,6.03
2019-02-28T13:37:57.630Z,7.87
2019-02-28T13:40:25.264Z,8.43
2019-02-28T13:42:52.746Z,8.07
2019-02-28T13:45:23.271Z,8.30
2019-02-28T13:47:49.635Z,8.63
2019-02-28T13:50:22.104Z,7.23
2019-02-28T13:52:52.285Z,7.00
2019-02-28T13:55:18.906Z,6.20
2019-02-28T13:57:47.469Z,9.13
2019-02-28T14:00:22.980Z,6.87
2019-02-28T14:02:52.624Z,7.83
2019-02-28T14:05:20.231Z,8.33
2019-02-28T14:07:47.753Z,8.77
2019-02-28T14:10:15.923Z,10.97
2019-02-28T14:13:52.945Z,10.03
2019-02-28T14:16:02.150Z,8.10
2019-02-28T14:18:29.634Z,9.97
2019-02-28T14:20:59.430Z,8.77
2019-02-28T14:23:26.505Z,10.67
2019-02-28T14:25:54.046Z,9.03
2019-02-28T14:28:21.550Z,10.43
2019-02-28T14:30:49.123Z,9.13
2019-02-28T14:33:19.360Z,6.77
2019-02-28T14:35:46.133Z,8.23
2019-02-28T14:38:13.680Z,8.30
2019-02-28T14:40:41.176Z,8.60
2019-02-28T14:43:08.679Z,9.90
2019-02-28T14:45:39.169Z,8.30
2019-02-28T14:48:06.439Z,8.60
2019-02-28T14:50:33.910Z,9.90
2019-02-28T14:53:01.457Z,7.33
2019-02-28T14:55:29.238Z,8.20
2019-02-28T14:57:58.241Z,8.70
2019-02-28T15:00:28.575Z,9.03
2019-02-28T15:02:56.262Z,9.30
2019-02-28T15:05:24.190Z,8.13
2019-02-28T15:07:51.674Z,6.50
2019-02-28T15:10:19.212Z,7.07
2019-02-28T15:12:47.056Z,7.13
2019-02-28T15:15:18.093Z,6.93
2019-02-28T15:17:45.320Z,7.83
2019-02-28T15:20:13.574Z,8.87
2019-02-28T15:22:41.267Z,5.33
2019-02-28T15:25:10.139Z,7.40
2019-02-28T15:27:39.013Z,7.93
2019-02-28T15:30:13.299Z,7.43
2019-02-28T15:33:00.232Z,7.33
2019-02-28T15:35:27.885Z,6.40
2019-02-28T15:37:57.111Z,7.03
2019-02-28T15:40:26.757Z,7.70
2019-02-28T15:42:54.300Z,5.70
2019-02-28T15:45:21.807Z,7.67
2019-02-28T15:47:51.129Z,8.40
2019-02-28T15:50:18.724Z,6.20
2019-02-28T15:52:46.307Z,8.03
2019-02-28T15:55:16.261Z,7.27
2019-02-28T15:57:43.771Z,8.80
2019-02-28T16:00:15.269Z,8.43
2019-02-28T16:02:43.106Z,7.97
2019-02-28T16:05:10.682Z,8.87
2019-02-28T16:07:38.210Z,6.87
2019-02-28T16:10:06.994Z,7.53
2019-02-28T16:12:34.629Z,6.83
2019-02-28T16:15:02.167Z,7.90
2019-02-28T16:17:29.710Z,7.77
2019-02-28T16:19:57.208Z,7.47
2019-02-28T16:22:24.699Z,8.77
2019-02-28T16:24:55.238Z,9.00
2019-02-28T16:27:22.717Z,8.30
2019-02-28T16:29:52.312Z,9.33
2019-02-28T16:32:19.687Z,9.07
2019-02-28T16:34:47.183Z,9.90
2019-02-28T16:37:14.650Z,10.03
2019-02-28T16:39:42.163Z,8.63
2019-02-28T16:42:11.561Z,9.30
2019-02-28T16:44:39.180Z,9.57
2019-02-28T16:47:06.692Z,10.20
2019-02-28T16:49:34.180Z,11.13
2019-02-28T16:52:02.594Z,10.90
2019-02-28T16:54:30.990Z,10.33
2019-02-28T16:56:58.554Z,10.87
2019-02-28T16:59:28.409Z,11.50
2019-02-28T17:01:55.804Z,12.80
2019-02-28T17:04:23.373Z,11.93
2019-02-28T17:06:50.894Z,10.37
2019-02-28T17:09:26.586Z,11.23
2019-02-28T17:12:05.104Z,12.20
2019-02-28T17:14:32.622Z,13.20
2019-02-28T17:17:19.970Z,13.00
2019-02-28T17:19:47.469Z,12.30
2019-02-28T17:22:14.937Z,12.33
2019-02-28T17:24:45.728Z,12.10
2019-02-28T17:27:22.584Z,12.97
2019-02-28T17:30:00.191Z,13.00
2019-02-28T17:32:31.000Z,11.57
2019-02-28T17:34:58.992Z,12.63
2019-02-28T17:37:26.801Z,11.87
2019-02-28T17:39:54.418Z,12.97
2019-02-28T17:42:21.983Z,12.73
2019-02-28T17:45:16.475Z,12.53
2019-02-28T17:48:28.148Z,13.03
2019-02-28T17:51:18.386Z,12.77
2019-02-28T17:54:12.902Z,13.63
2019-02-28T17:57:04.872Z,13.37
2019-02-28T17:59:58.342Z,13.90
2019-02-28T18:03:16.452Z,13.90
2019-02-28T18:06:24.860Z,13.97
2019-02-28T18:09:20.989Z,14.13
2019-02-28T18:12:45.696Z,14.67
2019-02-28T18:15:18.177Z,15.03
2019-02-28T18:18:31.934Z,15.13
2019-02-28T18:21:50.430Z,15.27
2019-02-28T18:25:02.882Z,13.73
2019-02-28T18:28:14.114Z,14.10
2019-02-28T18:31:13.242Z,14.60
2019-02-28T18:33:45.021Z,14.80
2019-02-28T18:36:14.722Z,14.53
2019-02-28T18:38:42.261Z,15.20
2019-02-28T18:41:09.995Z,14.23
2019-02-28T18:43:37.509Z,17.00
2019-02-28T18:46:05.729Z,15.30
2019-02-28T18:48:33.264Z,15.17
2019-02-28T18:51:00.785Z,16.40
2019-02-28T18:53:28.328Z,15.37
2019-02-28T18:55:55.838Z,15.47
2019-02-28T18:58:23.321Z,16.10
2019-02-28T19:00:50.981Z,15.83
2019-02-28T19:03:18.506Z,19.30
2019-02-28T19:05:46.011Z,15.00
2019-02-28T19:08:13.642Z,16.03
2019-02-28T19:10:41.125Z,15.13
2019-02-28T19:13:08.592Z,15.30
2019-02-28T19:15:36.101Z,14.47
2019-02-28T19:18:03.589Z,13.77
2019-02-28T19:20:31.138Z,15.00
2019-02-28T19:22:58.671Z,15.43
2019-02-28T19:25:26.197Z,14.20
2019-02-28T19:27:53.740Z,15.37
2019-02-28T19:30:21.247Z,14.80
2019-02-28T19:32:48.754Z,15.47
2019-02-28T19:35:16.274Z,15.50
2019-02-28T19:37:43.823Z,15.80
2019-02-28T19:40:11.332Z,16.10
2019-02-28T19:42:38.846Z,15.47
2019-02-28T19:45:08.822Z,17.97
2019-02-28T19:47:36.314Z,14.43
2019-02-28T19:50:05.003Z,13.63
2019-02-28T19:52:32.727Z,15.80
2019-02-28T19:55:00.378Z,14.73
2019-02-28T19:57:27.853Z,16.33
2019-02-28T19:59:55.403Z,14.87
2019-02-28T20:02:22.889Z,15.73
2019-02-28T20:04:50.432Z,15.53
2019-02-28T20:07:18.019Z,16.33
2019-02-28T20:09:45.529Z,14.07
2019-02-28T20:12:13.028Z,13.83
2019-02-28T20:14:40.536Z,14.23
2019-02-28T20:17:08.041Z,14.17
2019-02-28T20:19:35.589Z,13.47
2019-02-28T20:22:03.284Z,13.30
2019-02-28T20:24:30.776Z,12.43
2019-02-28T20:26:58.296Z,11.53
2019-02-28T20:29:25.777Z,9.70
2019-02-28T20:31:53.381Z,10.50
2019-02-28T20:34:20.931Z,9.83
2019-02-28T20:36:49.319Z,9.37
2019-02-28T20:39:16.908Z,11.03
2019-02-28T20:41:44.459Z,9.37
2019-02-28T20:44:11.994Z,11.67
2019-02-28T20:46:39.500Z,9.37
2019-02-28T20:49:06.969Z,11.90
2019-02-28T20:51:34.680Z,9.83
2019-02-28T20:54:02.147Z,11.13
2019-02-28T20:56:29.621Z,11.80
2019-02-28T20:58:57.115Z,11.27
2019-02-28T21:01:24.612Z,11.67
2019-02-28T21:03:52.197Z,10.93
2019-02-28T21:06:19.693Z,12.30
2019-02-28T21:08:47.191Z,10.53
2019-02-28T21:11:14.696Z,10.03
2019-02-28T21:13:42.182Z,11.10
2019-02-28T21:16:09.668Z,9.37
2019-02-28T21:18:37.144Z,10.07
2019-02-28T21:21:04.653Z,10.07
2019-02-28T21:23:32.176Z,8.57
2019-02-28T21:25:59.662Z,11.43
2019-02-28T21:28:27.173Z,9.87
2019-02-28T21:30:54.667Z,9.37
2019-02-28T21:33:22.218Z,10.37
2019-02-28T21:35:49.798Z,11.90
2019-02-28T21:38:17.414Z,12.93
2019-02-28T21:40:45.082Z,10.83
2019-02-28T21:43:13.002Z,13.00
2019-02-28T21:45:41.481Z,10.40
2019-02-28T21:48:09.017Z,10.20
2019-02-28T21:50:36.532Z,10.97
2019-02-28T21:53:04.088Z,9.77
2019-02-28T21:55:31.785Z,10.97
2019-02-28T21:57:59.301Z,13.37
2019-02-28T22:00:27.113Z,13.10
2019-02-28T22:02:54.644Z,13.37
2019-02-28T22:05:22.206Z,13.67
2019-02-28T22:07:49.725Z,14.07
2019-02-28T22:10:17.357Z,13.60
2019-02-28T22:12:44.880Z,13.17
2019-02-28T22:15:14.081Z,12.43
2019-02-28T22:17:41.616Z,14.13
2019-02-28T22:20:10.685Z,14.40
2019-02-28T22:22:38.317Z,15.30
2019-02-28T22:25:06.147Z,14.07
2019-02-28T22:27:33.657Z,14.47
2019-02-28T22:30:08.135Z,13.00
2019-02-28T22:32:41.976Z,13.27
2019-02-28T22:35:19.315Z,14.20
2019-02-28T22:37:47.029Z,14.27
2019-02-28T22:40:14.504Z,14.17
2019-02-28T22:42:42.013Z,13.63
2019-02-28T22:45:12.839Z,14.20
2019-02-28T22:47:40.357Z,12.90
2019-02-28T22:50:08.088Z,12.57
2019-02-28T22:52:35.611Z,13.53
2019-02-28T22:55:03.536Z,11.43
2019-02-28T22:57:31.088Z,12.80
2019-02-28T22:59:58.573Z,12.37
2019-02-28T23:02:27.980Z,11.93
2019-02-28T23:04:55.458Z,11.70
2019-02-28T23:07:22.931Z,11.00
2019-02-28T23:09:50.445Z,11.00
2019-02-28T23:12:17.912Z,9.10
2019-02-28T23:14:45.429Z,10.57
2019-02-28T23:17:12.905Z,9.97
2019-02-28T23:19:40.430Z,9.77
2019-02-28T23:22:07.988Z,10.47
2019-02-28T23:24:35.493Z,11.00
2019-02-28T23:27:10.068Z,10.73
2019-02-28T23:29:39.045Z,10.70
2019-02-28T23:32:30.446Z,9.13
2019-02-28T23:34:58.041Z,9.43
2019-02-28T23:37:25.603Z,9.40
2019-02-28T23:39:53.086Z,9.30
2019-02-28T23:42:20.594Z,9.60
2019-02-28T23:44:48.134Z,8.53
2019-02-28T23:47:15.683Z,9.07
2019-02-28T23:49:43.172Z,8.70
2019-02-28T23:52:10.756Z,8.07
2019-02-28T23:54:38.269Z,7.30
2019-02-28T23:57:05.747Z,7.90
2019-02-28T23:59:33.285Z,7.47
